createdAt,value
2023-01-19T00:00:27.842Z,2.90
2023-01-19T00:01:27.965Z,2.88
2023-01-19T00:02:28.162Z,2.91
2023-01-19T00:03:28.297Z,2.88
2023-01-19T00:04:28.456Z,2.91
2023-01-19T00:05:28.633Z,2.87
2023-01-19T00:06:28.929Z,2.86
2023-01-19T00:07:28.957Z,2.86
2023-01-19T00:08:29.119Z,2.80
2023-01-19T00:09:29.299Z,2.83
2023-01-19T00:10:29.459Z,2.80
2023-01-19T00:11:29.658Z,2.84
2023-01-19T00:12:29.821Z,2.77
2023-01-19T00:13:29.984Z,2.77
2023-01-19T00:14:30.151Z,2.75
2023-01-19T00:15:30.334Z,2.74
2023-01-19T00:16:30.535Z,2.77
2023-01-19T00:17:30.656Z,2.75
2023-01-19T00:18:30.826Z,2.75
2023-01-19T00:19:31.023Z,2.79
2023-01-19T00:20:31.189Z,2.83
2023-01-19T00:21:31.383Z,2.79
2023-01-19T00:22:31.529Z,2.79
2023-01-19T00:23:31.703Z,2.77
2023-01-19T00:24:31.879Z,2.75
2023-01-19T00:25:32.048Z,2.77
2023-01-19T00:26:32.266Z,2.74
2023-01-19T00:27:32.411Z,2.72
2023-01-19T00:28:32.601Z,2.71
2023-01-19T00:29:32.737Z,2.69
2023-01-19T00:30:32.935Z,2.74
2023-01-19T00:31:33.175Z,2.71
2023-01-19T00:32:33.291Z,2.71
2023-01-19T00:33:33.475Z,2.72
2023-01-19T00:34:33.659Z,2.72
2023-01-19T00:35:33.818Z,2.69
2023-01-19T00:36:34.001Z,2.72
2023-01-19T00:37:34.150Z,2.74
2023-01-19T00:38:34.322Z,2.72
2023-01-19T00:39:34.563Z,2.71
2023-01-19T00:40:34.677Z,2.71
2023-01-19T00:41:34.868Z,2.68
2023-01-19T00:42:35.025Z,2.68
2023-01-19T00:43:35.216Z,2.69
2023-01-19T00:44:35.375Z,2.69
2023-01-19T00:45:35.574Z,2.61
2023-01-19T00:46:35.702Z,2.67
2023-01-19T00:47:35.889Z,2.68
2023-01-19T00:48:36.081Z,2.65
2023-01-19T00:49:36.222Z,2.61
2023-01-19T00:50:36.430Z,2.57
2023-01-19T00:51:36.557Z,2.65
2023-01-19T00:52:36.733Z,2.65
2023-01-19T00:53:36.895Z,2.62
2023-01-19T00:54:37.083Z,2.64
2023-01-19T00:55:37.243Z,2.65
2023-01-19T00:56:37.427Z,2.65
2023-01-19T00:57:37.602Z,2.64
2023-01-19T00:58:37.795Z,2.59
2023-01-19T00:59:37.992Z,2.64
2023-01-19T01:00:38.142Z,2.59
2023-01-19T01:01:45.085Z,2.57
2023-01-19T01:02:39.595Z,2.62
2023-01-19T01:03:38.659Z,2.57
2023-01-19T01:04:38.838Z,2.59
2023-01-19T01:05:38.997Z,2.64
2023-01-19T01:06:39.147Z,2.61
2023-01-19T01:07:39.313Z,2.59
2023-01-19T01:08:39.495Z,2.61
2023-01-19T01:09:39.665Z,2.61
2023-01-19T01:10:39.832Z,2.61
2023-01-19T01:11:40.005Z,2.61
2023-01-19T01:12:40.233Z,2.54
2023-01-19T01:13:40.349Z,2.56
2023-01-19T01:14:40.536Z,2.61
2023-01-19T01:15:40.679Z,2.56
2023-01-19T01:16:40.951Z,2.54
2023-01-19T01:17:41.051Z,2.57
2023-01-19T01:18:41.221Z,2.57
2023-01-19T01:19:41.405Z,2.53
2023-01-19T01:20:41.553Z,2.56
2023-01-19T01:21:41.716Z,2.57
2023-01-19T01:22:41.906Z,2.56
2023-01-19T01:23:42.058Z,2.54
2023-01-19T01:24:42.234Z,2.57
2023-01-19T01:25:42.389Z,2.56
2023-01-19T01:26:42.584Z,2.57
2023-01-19T01:27:42.741Z,2.51
2023-01-19T01:28:42.951Z,2.51
2023-01-19T01:29:43.100Z,2.50
2023-01-19T01:30:43.271Z,2.53
2023-01-19T01:31:43.500Z,2.50
2023-01-19T01:32:43.620Z,2.50
2023-01-19T01:33:43.785Z,2.53
2023-01-19T01:34:43.950Z,2.49
2023-01-19T01:35:44.092Z,2.47
2023-01-19T01:36:44.298Z,2.49
2023-01-19T01:37:44.491Z,2.46
2023-01-19T01:38:44.661Z,2.47
2023-01-19T01:39:44.816Z,2.43
2023-01-19T01:40:45.013Z,2.44
2023-01-19T01:41:45.136Z,2.43
2023-01-19T01:42:45.307Z,2.39
2023-01-19T01:43:45.513Z,2.44
2023-01-19T01:44:45.657Z,2.38
2023-01-19T01:45:45.882Z,2.36
2023-01-19T01:46:46.009Z,2.34
2023-01-19T01:47:46.192Z,2.35
2023-01-19T01:48:46.427Z,2.34
2023-01-19T01:49:46.568Z,2.36
2023-01-19T01:50:46.721Z,2.34
2023-01-19T01:51:46.900Z,2.32
2023-01-19T01:53:06.725Z,2.35
2023-01-19T01:53:48.251Z,2.35
2023-01-19T01:54:47.389Z,2.29
2023-01-19T01:55:47.579Z,2.29
2023-01-19T01:56:47.743Z,2.29
2023-01-19T01:57:47.897Z,2.31
2023-01-19T01:58:48.089Z,2.29
2023-01-19T01:59:48.246Z,2.31
2023-01-19T02:00:48.494Z,2.26
2023-01-19T02:01:48.714Z,2.26
2023-01-19T02:02:48.738Z,2.26
2023-01-19T02:03:48.943Z,2.24
2023-01-19T02:04:49.104Z,2.25
2023-01-19T02:05:49.307Z,2.25
2023-01-19T02:06:49.457Z,2.24
2023-01-19T02:07:49.636Z,2.24
2023-01-19T02:08:49.781Z,2.24
2023-01-19T02:09:49.943Z,2.18
2023-01-19T02:10:50.131Z,2.18
2023-01-19T02:11:50.268Z,2.21
2023-01-19T02:12:50.466Z,2.21
2023-01-19T02:13:50.683Z,2.25
2023-01-19T02:14:50.844Z,2.26
2023-01-19T02:15:51.006Z,2.20
2023-01-19T02:16:51.231Z,2.18
2023-01-19T02:17:51.335Z,2.18
2023-01-19T02:18:51.516Z,2.17
2023-01-19T02:19:51.656Z,2.16
2023-01-19T02:20:51.814Z,2.14
2023-01-19T02:21:51.992Z,2.08
2023-01-19T02:22:52.164Z,2.11
2023-01-19T02:23:52.366Z,2.13
2023-01-19T02:24:52.520Z,2.08
2023-01-19T02:25:52.709Z,2.13
2023-01-19T02:26:52.864Z,2.07
2023-01-19T02:27:53.055Z,2.10
2023-01-19T02:28:53.206Z,2.06
2023-01-19T02:29:53.404Z,2.07
2023-01-19T02:30:53.672Z,2.07
2023-01-19T02:31:53.774Z,2.07
2023-01-19T02:32:53.906Z,2.04
2023-01-19T02:33:54.091Z,2.07
2023-01-19T02:34:54.269Z,2.07
2023-01-19T02:35:54.435Z,1.98
2023-01-19T02:36:54.655Z,2.10
2023-01-19T02:37:54.764Z,2.02
2023-01-19T02:38:54.936Z,2.06
2023-01-19T02:39:55.132Z,2.06
2023-01-19T02:40:55.290Z,2.02
2023-01-19T02:41:55.453Z,2.04
2023-01-19T02:42:55.596Z,2.04
2023-01-19T02:43:55.787Z,2.04
2023-01-19T02:44:55.970Z,1.99
2023-01-19T02:45:56.228Z,2.00
2023-01-19T02:46:56.331Z,1.99
2023-01-19T02:47:56.478Z,1.96
2023-01-19T02:48:56.678Z,1.99
2023-01-19T02:49:56.846Z,1.99
2023-01-19T02:50:57.058Z,1.96
2023-01-19T02:51:57.212Z,1.96
2023-01-19T02:52:57.561Z,1.96
2023-01-19T02:53:57.580Z,1.98
2023-01-19T02:54:57.759Z,1.99
2023-01-19T02:55:57.996Z,1.96
2023-01-19T02:56:58.108Z,2.02
2023-01-19T02:57:58.295Z,1.99
2023-01-19T02:58:58.456Z,1.96
2023-01-19T02:59:58.634Z,1.99
2023-01-19T03:00:59.011Z,1.96
2023-01-19T03:01:59.001Z,1.96
2023-01-19T03:02:59.604Z,1.95
2023-01-19T03:03:59.300Z,1.93
2023-01-19T03:04:59.472Z,1.96
2023-01-19T03:05:59.659Z,1.90
2023-01-19T03:06:59.820Z,1.93
2023-01-19T03:07:59.989Z,1.95
2023-01-19T03:09:00.174Z,1.93
2023-01-19T03:10:00.333Z,1.95
2023-01-19T03:11:00.548Z,1.93
2023-01-19T03:12:00.704Z,1.92
2023-01-19T03:13:01.147Z,1.89
2023-01-19T03:14:01.974Z,1.92
2023-01-19T03:15:01.246Z,1.90
2023-01-19T03:16:01.386Z,1.86
2023-01-19T03:17:01.591Z,1.86
2023-01-19T03:18:01.724Z,1.78
2023-01-19T03:19:01.920Z,1.86
2023-01-19T03:20:02.076Z,1.81
2023-01-19T03:21:02.263Z,1.80
2023-01-19T03:22:02.419Z,1.81
2023-01-19T03:23:03.069Z,1.81
2023-01-19T03:24:02.766Z,1.81
2023-01-19T03:25:03.012Z,1.77
2023-01-19T03:26:03.102Z,1.81
2023-01-19T03:27:03.266Z,1.77
2023-01-19T03:28:03.435Z,1.81
2023-01-19T03:29:03.601Z,1.77
2023-01-19T03:30:03.774Z,1.80
2023-01-19T03:31:03.958Z,1.80
2023-01-19T03:32:04.121Z,1.74
2023-01-19T03:33:04.303Z,1.78
2023-01-19T03:34:04.505Z,1.78
2023-01-19T03:35:04.639Z,1.74
2023-01-19T03:36:04.808Z,1.72
2023-01-19T03:37:04.975Z,1.75
2023-01-19T03:38:05.170Z,1.71
2023-01-19T03:39:05.334Z,1.72
2023-01-19T03:40:05.492Z,1.74
2023-01-19T03:41:05.663Z,1.74
2023-01-19T03:42:05.831Z,1.68
2023-01-19T03:43:06.009Z,1.74
2023-01-19T03:44:06.181Z,1.74
2023-01-19T03:45:06.341Z,1.71
2023-01-19T03:46:06.531Z,1.72
2023-01-19T03:47:06.683Z,1.70
2023-01-19T03:48:06.842Z,1.70
2023-01-19T03:49:07.012Z,1.72
2023-01-19T03:50:07.190Z,1.74
2023-01-19T03:51:07.381Z,1.72
2023-01-19T03:52:07.570Z,1.70
2023-01-19T03:53:07.705Z,1.71
2023-01-19T03:54:07.867Z,1.70
2023-01-19T03:55:08.040Z,1.70
2023-01-19T03:56:08.209Z,1.68
2023-01-19T03:57:08.429Z,1.68
2023-01-19T03:58:08.568Z,1.72
2023-01-19T03:59:08.728Z,1.68
2023-01-19T04:00:08.894Z,1.71
2023-01-19T04:01:09.131Z,1.71
2023-01-19T04:02:09.326Z,1.74
2023-01-19T04:03:09.426Z,1.74
2023-01-19T04:04:09.563Z,1.74
2023-01-19T04:05:09.744Z,1.74
2023-01-19T04:06:09.904Z,1.75
2023-01-19T04:07:10.088Z,1.75
2023-01-19T04:08:10.256Z,1.75
2023-01-19T04:09:10.415Z,1.75
2023-01-19T04:10:10.587Z,1.81
2023-01-19T04:11:10.748Z,1.77
2023-01-19T04:12:10.921Z,1.74
2023-01-19T04:13:11.159Z,1.75
2023-01-19T04:14:11.275Z,1.71
2023-01-19T04:15:11.446Z,1.74
2023-01-19T04:16:11.620Z,1.71
2023-01-19T04:17:11.794Z,1.74
2023-01-19T04:18:11.965Z,1.72
2023-01-19T04:19:12.139Z,1.74
2023-01-19T04:20:12.293Z,1.72
2023-01-19T04:21:12.486Z,1.72
2023-01-19T04:22:12.653Z,1.77
2023-01-19T04:23:12.823Z,1.77
2023-01-19T04:24:12.984Z,1.74
2023-01-19T04:25:13.166Z,1.72
2023-01-19T04:26:13.324Z,1.70
2023-01-19T04:27:13.517Z,1.70
2023-01-19T04:28:13.696Z,1.70
2023-01-19T04:29:13.878Z,1.70
2023-01-19T04:30:14.038Z,1.68
2023-01-19T04:31:14.250Z,1.72
2023-01-19T04:32:14.395Z,1.62
2023-01-19T04:33:14.558Z,1.68
2023-01-19T04:34:14.720Z,1.70
2023-01-19T04:35:14.899Z,1.67
2023-01-19T04:36:15.070Z,1.64
2023-01-19T04:37:15.262Z,1.57
2023-01-19T04:38:15.421Z,1.70
2023-01-19T04:39:15.586Z,1.67
2023-01-19T04:40:15.756Z,1.64
2023-01-19T04:41:15.941Z,1.60
2023-01-19T04:42:16.131Z,1.60
2023-01-19T04:43:16.266Z,1.64
2023-01-19T04:44:16.495Z,1.62
2023-01-19T04:45:16.621Z,1.62
2023-01-19T04:46:16.814Z,1.60
2023-01-19T04:47:16.967Z,1.59
2023-01-19T04:48:17.160Z,1.63
2023-01-19T04:49:17.289Z,1.63
2023-01-19T04:50:17.472Z,1.59
2023-01-19T04:51:17.629Z,1.57
2023-01-19T04:52:17.825Z,1.59
2023-01-19T04:53:17.965Z,1.59
2023-01-19T04:54:18.189Z,1.57
2023-01-19T04:55:18.287Z,1.56
2023-01-19T04:56:18.463Z,1.59
2023-01-19T04:57:18.671Z,1.50
2023-01-19T04:58:18.801Z,1.54
2023-01-19T04:59:18.980Z,1.50
2023-01-19T05:00:19.150Z,1.53
2023-01-19T05:01:19.389Z,1.54
2023-01-19T05:02:19.493Z,1.54
2023-01-19T05:03:19.685Z,1.53
2023-01-19T05:04:19.843Z,1.52
2023-01-19T05:05:20.012Z,1.54
2023-01-19T05:06:20.201Z,1.54
2023-01-19T05:07:20.361Z,1.52
2023-01-19T05:08:20.546Z,1.52
2023-01-19T05:09:20.711Z,1.50
2023-01-19T05:10:20.877Z,1.49
2023-01-19T05:11:21.038Z,1.49
2023-01-19T05:12:21.221Z,1.45
2023-01-19T05:13:21.403Z,1.46
2023-01-19T05:14:21.572Z,1.50
2023-01-19T05:15:21.731Z,1.44
2023-01-19T05:16:21.984Z,1.49
2023-01-19T05:17:22.102Z,1.46
2023-01-19T05:18:22.240Z,1.45
2023-01-19T05:19:22.405Z,1.49
2023-01-19T05:20:22.578Z,1.49
2023-01-19T05:21:22.742Z,1.46
2023-01-19T05:22:22.942Z,1.46
2023-01-19T05:23:23.102Z,1.46
2023-01-19T05:24:23.265Z,1.45
2023-01-19T05:25:23.433Z,1.42
2023-01-19T05:26:23.603Z,1.42
2023-01-19T05:27:23.795Z,1.44
2023-01-19T05:28:23.956Z,1.46
2023-01-19T05:29:24.124Z,1.46
2023-01-19T05:30:24.336Z,1.46
2023-01-19T05:31:24.561Z,1.46
2023-01-19T05:32:24.660Z,1.45
2023-01-19T05:33:24.817Z,1.50
2023-01-19T05:34:25.003Z,1.46
2023-01-19T05:35:35.297Z,1.44
2023-01-19T05:36:26.356Z,1.49
2023-01-19T05:37:25.558Z,1.44
2023-01-19T05:38:34.512Z,1.46
2023-01-19T05:39:26.887Z,1.44
2023-01-19T05:40:26.081Z,1.45
2023-01-19T05:41:26.230Z,1.46
2023-01-19T05:42:26.412Z,1.42
2023-01-19T05:43:26.577Z,1.42
2023-01-19T05:44:26.753Z,1.44
2023-01-19T05:45:26.920Z,1.45
2023-01-19T05:46:27.142Z,1.45
2023-01-19T05:47:27.270Z,1.42
2023-01-19T05:48:27.452Z,1.42
2023-01-19T05:49:27.632Z,1.41
2023-01-19T05:50:27.826Z,1.39
2023-01-19T05:51:27.970Z,1.42
2023-01-19T05:52:28.154Z,1.35
2023-01-19T05:53:28.325Z,1.34
2023-01-19T05:54:28.499Z,1.39
2023-01-19T05:55:28.673Z,1.37
2023-01-19T05:56:28.841Z,1.35
2023-01-19T05:57:29.017Z,1.37
2023-01-19T05:58:29.203Z,1.37
2023-01-19T05:59:29.360Z,1.30
2023-01-19T06:00:29.515Z,1.33
2023-01-19T06:01:29.674Z,1.34
2023-01-19T06:02:29.889Z,1.35
2023-01-19T06:03:30.048Z,1.34
2023-01-19T06:04:30.204Z,1.33
2023-01-19T06:05:30.391Z,1.37
2023-01-19T06:06:30.570Z,1.31
2023-01-19T06:07:30.753Z,1.33
2023-01-19T06:08:30.932Z,1.35
2023-01-19T06:09:31.121Z,1.35
2023-01-19T06:10:31.263Z,1.31
2023-01-19T06:11:31.437Z,1.33
2023-01-19T06:12:31.610Z,1.37
2023-01-19T06:13:31.805Z,1.31
2023-01-19T06:14:31.976Z,1.35
2023-01-19T06:15:32.140Z,1.35
2023-01-19T06:16:32.368Z,1.31
2023-01-19T06:17:32.490Z,1.30
2023-01-19T06:18:32.664Z,1.31
2023-01-19T06:19:32.827Z,1.37
2023-01-19T06:20:32.997Z,1.30
2023-01-19T06:21:33.170Z,1.30
2023-01-19T06:22:33.358Z,1.33
2023-01-19T06:23:33.499Z,1.37
2023-01-19T06:24:33.679Z,1.35
2023-01-19T06:25:33.844Z,1.33
2023-01-19T06:26:34.008Z,1.34
2023-01-19T06:27:34.187Z,1.33
2023-01-19T06:28:34.337Z,1.39
2023-01-19T06:29:34.525Z,1.31
2023-01-19T06:30:34.728Z,1.34
2023-01-19T06:31:34.928Z,1.37
2023-01-19T06:32:35.051Z,1.33
2023-01-19T06:33:35.221Z,1.37
2023-01-19T06:34:35.388Z,1.34
2023-01-19T06:35:35.546Z,1.41
2023-01-19T06:36:35.729Z,1.49
2023-01-19T06:37:35.904Z,1.63
2023-01-19T06:38:36.069Z,1.82
2023-01-19T06:39:36.219Z,2.02
2023-01-19T06:40:36.378Z,2.20
2023-01-19T06:41:36.572Z,2.35
2023-01-19T06:42:36.760Z,2.62
2023-01-19T06:43:36.931Z,2.83
2023-01-19T06:44:37.088Z,2.99
2023-01-19T06:45:37.285Z,3.19
2023-01-19T06:46:37.451Z,3.38
2023-01-19T06:47:37.660Z,3.58
2023-01-19T06:48:37.849Z,3.67
2023-01-19T06:49:37.999Z,3.74
2023-01-19T06:50:38.201Z,3.75
2023-01-19T06:51:38.385Z,3.80
2023-01-19T06:52:38.571Z,3.84
2023-01-19T06:53:38.781Z,3.84
2023-01-19T06:54:38.943Z,3.81
2023-01-19T06:55:39.097Z,3.75
2023-01-19T06:56:39.267Z,3.77
2023-01-19T06:57:39.411Z,3.69
2023-01-19T06:58:39.598Z,3.65
2023-01-19T06:59:39.733Z,3.62
2023-01-19T07:00:39.912Z,3.52
2023-01-19T07:01:40.173Z,3.51
2023-01-19T07:02:40.329Z,3.45
2023-01-19T07:03:40.426Z,3.38
2023-01-19T07:04:40.625Z,3.37
2023-01-19T07:05:40.753Z,3.40
2023-01-19T07:06:40.932Z,3.32
2023-01-19T07:07:41.113Z,3.27
2023-01-19T07:08:41.313Z,3.24
2023-01-19T07:09:41.452Z,3.22
2023-01-19T07:11:26.171Z,3.12
2023-01-19T07:11:42.793Z,3.14
2023-01-19T07:12:41.986Z,3.12
2023-01-19T07:13:42.112Z,3.04
2023-01-19T07:14:42.288Z,2.96
2023-01-19T07:15:42.454Z,2.91
2023-01-19T07:16:42.746Z,2.87
2023-01-19T07:17:42.838Z,2.83
2023-01-19T07:18:42.975Z,2.80
2023-01-19T07:19:43.175Z,2.79
2023-01-19T07:20:43.323Z,2.74
2023-01-19T07:21:43.495Z,2.75
2023-01-19T07:22:43.695Z,2.71
2023-01-19T07:23:43.875Z,2.68
2023-01-19T07:24:44.056Z,2.69
2023-01-19T07:25:44.240Z,2.61
2023-01-19T07:26:44.418Z,2.56
2023-01-19T07:27:44.566Z,2.53
2023-01-19T07:28:46.785Z,2.53
2023-01-19T07:29:44.930Z,2.51
2023-01-19T07:30:45.139Z,2.50
2023-01-19T07:31:45.389Z,2.43
2023-01-19T07:32:45.436Z,2.43
2023-01-19T07:33:45.602Z,2.38
2023-01-19T07:34:45.811Z,2.34
2023-01-19T07:35:45.987Z,2.38
2023-01-19T07:36:46.169Z,2.34
2023-01-19T07:37:46.342Z,2.32
2023-01-19T07:38:46.500Z,2.34
2023-01-19T07:39:46.653Z,2.32
2023-01-19T07:40:46.839Z,2.32
2023-01-19T07:41:47.024Z,2.31
2023-01-19T07:42:47.247Z,2.31
2023-01-19T07:43:47.355Z,2.29
2023-01-19T07:44:47.528Z,2.24
2023-01-19T07:45:47.755Z,2.26
2023-01-19T07:46:47.883Z,2.24
2023-01-19T07:47:48.070Z,2.24
2023-01-19T07:48:48.238Z,2.25
2023-01-19T07:49:48.418Z,2.21
2023-01-19T07:50:48.593Z,2.28
2023-01-19T07:51:48.789Z,2.26
2023-01-19T07:52:48.952Z,2.32
2023-01-19T07:53:49.129Z,2.32
2023-01-19T07:54:49.350Z,2.35
2023-01-19T07:55:49.481Z,2.39
2023-01-19T07:56:49.661Z,2.43
2023-01-19T07:57:49.821Z,2.46
2023-01-19T07:58:50.063Z,2.46
2023-01-19T07:59:50.192Z,2.56
2023-01-19T08:00:50.468Z,2.57
2023-01-19T08:01:50.681Z,2.62
2023-01-19T08:02:50.690Z,2.74
2023-01-19T08:03:50.883Z,2.79
2023-01-19T08:04:51.059Z,2.83
2023-01-19T08:05:51.190Z,2.88
2023-01-19T08:06:51.362Z,2.91
2023-01-19T08:07:53.323Z,2.96
2023-01-19T08:08:51.703Z,3.01
2023-01-19T08:09:51.875Z,3.04
2023-01-19T08:10:52.052Z,3.12
2023-01-19T08:11:52.193Z,3.22
2023-01-19T08:12:52.374Z,3.27
2023-01-19T08:13:52.553Z,3.29
2023-01-19T08:14:52.792Z,3.42
2023-01-19T08:15:53.026Z,3.49
2023-01-19T08:16:53.064Z,3.56
2023-01-19T08:17:53.339Z,3.69
2023-01-19T08:18:53.420Z,3.85
2023-01-19T08:19:53.565Z,3.93
2023-01-19T08:20:53.734Z,4.05
2023-01-19T08:21:53.902Z,4.17
2023-01-19T08:22:54.075Z,4.35
2023-01-19T08:23:54.344Z,4.50
2023-01-19T08:24:54.438Z,4.65
2023-01-19T08:25:54.595Z,4.81
2023-01-19T08:26:54.756Z,4.97
2023-01-19T08:27:54.936Z,5.08
2023-01-19T08:28:55.119Z,5.16
2023-01-19T08:29:55.280Z,5.32
2023-01-19T08:30:55.593Z,5.48
2023-01-19T08:31:55.741Z,5.55
2023-01-19T08:32:55.799Z,5.69
2023-01-19T08:33:55.981Z,5.79
2023-01-19T08:34:56.156Z,5.89
2023-01-19T08:35:56.384Z,6.00
2023-01-19T08:36:56.495Z,6.10
2023-01-19T08:37:56.689Z,6.17
2023-01-19T08:38:56.858Z,6.27
2023-01-19T08:39:57.023Z,6.43
2023-01-19T08:40:57.176Z,6.58
2023-01-19T08:41:57.347Z,6.68
2023-01-19T08:42:57.540Z,6.83
2023-01-19T08:43:57.718Z,6.93
2023-01-19T08:44:58.663Z,7.03
2023-01-19T08:45:58.085Z,7.16
2023-01-19T08:46:58.222Z,7.23
2023-01-19T08:47:58.388Z,7.34
2023-01-19T08:48:58.559Z,7.38
2023-01-19T08:49:58.741Z,7.50
2023-01-19T08:50:58.920Z,7.55
2023-01-19T08:51:59.052Z,7.62
2023-01-19T08:52:59.672Z,7.67
2023-01-19T08:53:59.400Z,7.71
2023-01-19T08:54:59.569Z,7.77
2023-01-19T08:55:59.735Z,7.80
2023-01-19T08:56:59.899Z,7.81
2023-01-19T08:58:00.661Z,7.89
2023-01-19T08:59:09.298Z,7.85
2023-01-19T09:00:01.431Z,7.86
2023-01-19T09:01:02.593Z,7.92
2023-01-19T09:02:00.903Z,7.89
2023-01-19T09:03:01.478Z,7.96
2023-01-19T09:04:01.110Z,8.01
2023-01-19T09:05:01.281Z,8.04
2023-01-19T09:06:01.462Z,8.04
2023-01-19T09:07:01.642Z,8.09
2023-01-19T09:08:02.163Z,8.13
2023-01-19T09:09:01.985Z,8.18
2023-01-19T09:10:02.207Z,8.24
2023-01-19T09:11:02.331Z,8.28
2023-01-19T09:12:02.549Z,8.36
2023-01-19T09:13:02.704Z,8.44
2023-01-19T09:14:02.851Z,8.49
2023-01-19T09:15:03.025Z,8.54
2023-01-19T09:16:03.280Z,8.58
2023-01-19T09:17:03.375Z,8.62
2023-01-19T09:18:03.807Z,8.73
2023-01-19T09:19:03.716Z,8.69
2023-01-19T09:20:03.924Z,8.69
2023-01-19T09:21:04.092Z,8.69
2023-01-19T09:22:04.244Z,8.70
2023-01-19T09:23:04.438Z,8.69
2023-01-19T09:24:04.610Z,8.69
2023-01-19T09:25:04.782Z,8.75
2023-01-19T09:26:04.959Z,8.78
2023-01-19T09:27:05.141Z,8.83
2023-01-19T09:28:05.333Z,8.91
2023-01-19T09:29:05.485Z,8.94
2023-01-19T09:30:05.656Z,9.01
2023-01-19T09:31:05.908Z,9.02
2023-01-19T09:32:05.991Z,9.08
2023-01-19T09:33:06.161Z,9.09
2023-01-19T09:34:06.341Z,9.13
2023-01-19T09:35:06.522Z,9.17
2023-01-19T09:36:06.692Z,9.20
2023-01-19T09:37:06.867Z,9.26
2023-01-19T09:38:07.067Z,9.27
2023-01-19T09:39:07.228Z,9.35
2023-01-19T09:40:07.442Z,9.38
2023-01-19T09:41:07.568Z,9.38
2023-01-19T09:42:07.729Z,9.41
2023-01-19T09:43:07.932Z,9.53
2023-01-19T09:44:08.099Z,9.49
2023-01-19T09:45:08.338Z,9.48
2023-01-19T09:46:08.484Z,9.56
2023-01-19T09:47:08.594Z,9.60
2023-01-19T09:48:08.770Z,9.69
2023-01-19T09:49:08.962Z,9.75
2023-01-19T09:50:09.135Z,9.81
2023-01-19T09:51:09.311Z,9.79
2023-01-19T09:52:09.503Z,9.94
2023-01-19T09:53:09.660Z,10.03
2023-01-19T09:54:09.858Z,10.13
2023-01-19T09:55:09.998Z,10.11
2023-01-19T09:56:10.184Z,10.19
2023-01-19T09:57:10.320Z,10.23
2023-01-19T09:58:10.494Z,10.33
2023-01-19T09:59:10.686Z,10.40
2023-01-19T10:00:10.867Z,10.48
2023-01-19T10:01:11.164Z,10.49
2023-01-19T10:02:11.226Z,10.56
2023-01-19T10:03:11.462Z,10.62
2023-01-19T10:04:11.594Z,10.73
2023-01-19T10:05:11.756Z,10.77
2023-01-19T10:06:11.931Z,10.81
2023-01-19T10:07:12.054Z,10.85
2023-01-19T10:08:12.231Z,10.89
2023-01-19T10:09:12.395Z,10.98
2023-01-19T10:10:12.588Z,11.03
2023-01-19T10:11:12.724Z,11.09
2023-01-19T10:12:12.905Z,11.09
2023-01-19T10:13:13.065Z,11.16
2023-01-19T10:14:13.247Z,11.21
2023-01-19T10:15:13.452Z,11.24
2023-01-19T10:16:13.646Z,11.31
2023-01-19T10:17:13.752Z,11.46
2023-01-19T10:18:13.912Z,11.51
2023-01-19T10:19:14.077Z,11.55
2023-01-19T10:20:14.259Z,11.63
2023-01-19T10:21:14.402Z,11.72
2023-01-19T10:22:14.573Z,11.80
2023-01-19T10:23:14.756Z,11.84
2023-01-19T10:24:14.940Z,11.86
2023-01-19T10:25:15.119Z,11.96
2023-01-19T10:26:15.308Z,11.96
2023-01-19T10:27:15.460Z,11.98
2023-01-19T10:28:15.663Z,12.08
2023-01-19T10:29:15.822Z,12.16
2023-01-19T10:30:15.981Z,12.20
2023-01-19T10:31:16.309Z,12.24
2023-01-19T10:32:16.309Z,12.27
2023-01-19T10:33:16.501Z,12.35
2023-01-19T10:34:19.802Z,12.41
2023-01-19T10:35:17.834Z,12.46
2023-01-19T10:36:17.012Z,12.59
2023-01-19T10:37:17.199Z,12.64
2023-01-19T10:38:17.406Z,12.71
2023-01-19T10:39:17.552Z,12.80
2023-01-19T10:40:17.731Z,12.82
2023-01-19T10:41:17.876Z,12.86
2023-01-19T10:42:18.059Z,12.93
2023-01-19T10:43:18.213Z,12.93
2023-01-19T10:44:18.394Z,12.87
2023-01-19T10:45:18.601Z,12.85
2023-01-19T10:46:18.817Z,12.80
2023-01-19T10:47:18.960Z,12.78
2023-01-19T10:48:19.097Z,12.72
2023-01-19T10:49:19.295Z,12.69
2023-01-19T10:50:19.503Z,12.60
2023-01-19T10:51:19.699Z,12.60
2023-01-19T10:52:19.947Z,12.57
2023-01-19T10:53:20.062Z,12.56
2023-01-19T10:54:20.221Z,12.61
2023-01-19T10:55:20.340Z,12.63
2023-01-19T10:56:20.509Z,12.63
2023-01-19T10:57:20.699Z,12.66
2023-01-19T10:58:20.855Z,12.69
2023-01-19T10:59:21.029Z,12.72
2023-01-19T11:00:21.198Z,12.80
2023-01-19T11:01:21.481Z,12.82
2023-01-19T11:02:21.846Z,12.90
2023-01-19T11:03:21.719Z,12.91
2023-01-19T11:04:21.959Z,12.95
2023-01-19T11:05:22.087Z,12.98
2023-01-19T11:06:22.238Z,13.01
2023-01-19T11:07:22.389Z,13.09
2023-01-19T11:08:22.601Z,13.18
2023-01-19T11:09:22.713Z,13.16
2023-01-19T11:10:22.873Z,13.27
2023-01-19T11:11:23.066Z,13.33
2023-01-19T11:12:23.200Z,13.38
2023-01-19T11:13:23.362Z,13.49
2023-01-19T11:14:23.545Z,13.53
2023-01-19T11:15:23.709Z,13.60
2023-01-19T11:16:23.930Z,13.68
2023-01-19T11:17:24.048Z,13.70
2023-01-19T11:18:24.250Z,13.78
2023-01-19T11:19:24.412Z,13.85
2023-01-19T11:20:24.654Z,13.95
2023-01-19T11:21:25.919Z,14.03
2023-01-19T11:22:24.945Z,14.06
2023-01-19T11:23:25.140Z,14.16
2023-01-19T11:24:25.295Z,14.22
2023-01-19T11:25:25.502Z,14.30
2023-01-19T11:26:25.663Z,14.33
2023-01-19T11:27:25.829Z,14.44
2023-01-19T11:28:26.009Z,14.47
2023-01-19T11:29:26.192Z,14.55
2023-01-19T11:30:26.400Z,14.63
2023-01-19T11:31:26.628Z,14.84
2023-01-19T11:32:26.685Z,14.95
2023-01-19T11:33:26.899Z,15.07
2023-01-19T11:34:27.035Z,15.20
2023-01-19T11:35:27.250Z,15.33
2023-01-19T11:36:27.390Z,15.49
2023-01-19T11:37:27.556Z,15.60
2023-01-19T11:38:27.744Z,15.73
2023-01-19T11:39:27.960Z,15.81
2023-01-19T11:40:28.087Z,16.05
2023-01-19T11:41:28.269Z,16.13
2023-01-19T11:42:28.447Z,16.29
2023-01-19T11:43:36.620Z,16.41
2023-01-19T11:44:29.792Z,16.51
2023-01-19T11:45:29.022Z,16.66
2023-01-19T11:46:29.135Z,16.84
2023-01-19T11:47:29.306Z,16.99
2023-01-19T11:48:29.505Z,17.12
2023-01-19T11:49:29.672Z,17.24
2023-01-19T11:50:29.821Z,17.43
2023-01-19T11:51:29.991Z,17.52
2023-01-19T11:52:30.178Z,17.64
2023-01-19T11:53:30.332Z,17.75
2023-01-19T11:54:30.510Z,17.89
2023-01-19T11:55:30.683Z,18.02
2023-01-19T11:56:30.856Z,18.17
2023-01-19T11:57:31.059Z,18.33
2023-01-19T11:58:31.189Z,18.48
2023-01-19T11:59:31.356Z,18.71
2023-01-19T12:00:31.524Z,18.93
2023-01-19T12:01:31.685Z,19.12
2023-01-19T12:02:31.932Z,19.27
2023-01-19T12:03:32.038Z,19.46
2023-01-19T12:04:32.185Z,19.58
2023-01-19T12:05:32.357Z,19.73
2023-01-19T12:06:32.522Z,19.86
2023-01-19T12:07:32.697Z,19.98
2023-01-19T12:08:32.886Z,20.15
2023-01-19T12:09:33.045Z,20.31
2023-01-19T12:10:33.227Z,20.42
2023-01-19T12:11:33.410Z,20.52
2023-01-19T12:12:33.604Z,20.70
2023-01-19T12:13:33.744Z,20.84
2023-01-19T12:14:33.945Z,20.91
2023-01-19T12:15:34.119Z,21.04
2023-01-19T12:16:34.340Z,21.11
2023-01-19T12:17:34.458Z,21.23
2023-01-19T12:18:34.640Z,21.35
2023-01-19T12:19:34.811Z,21.49
2023-01-19T12:20:34.999Z,21.56
2023-01-19T12:21:35.190Z,21.68
2023-01-19T12:22:35.369Z,21.77
2023-01-19T12:23:35.519Z,21.84
2023-01-19T12:24:35.760Z,21.96
2023-01-19T12:25:35.916Z,21.97
2023-01-19T12:26:36.075Z,22.08
2023-01-19T12:27:36.252Z,22.14
2023-01-19T12:28:36.416Z,22.21
2023-01-19T12:29:36.594Z,22.24
2023-01-19T12:30:36.823Z,22.34
2023-01-19T12:31:37.007Z,22.36
2023-01-19T12:32:37.152Z,22.37
2023-01-19T12:33:37.348Z,22.44
2023-01-19T12:34:37.507Z,22.45
2023-01-19T12:35:37.676Z,22.53
2023-01-19T12:36:37.854Z,22.59
2023-01-19T12:37:38.054Z,22.59
2023-01-19T12:38:38.194Z,22.64
2023-01-19T12:39:38.396Z,22.68
2023-01-19T12:40:38.557Z,22.74
2023-01-19T12:41:38.741Z,22.70
2023-01-19T12:42:38.878Z,22.74
2023-01-19T12:43:39.083Z,22.77
2023-01-19T12:44:39.266Z,22.77
2023-01-19T12:45:39.427Z,22.80
2023-01-19T12:46:39.610Z,22.89
2023-01-19T12:47:39.769Z,22.90
2023-01-19T12:48:39.952Z,22.84
2023-01-19T12:49:40.112Z,22.93
2023-01-19T12:50:40.303Z,22.98
2023-01-19T12:51:40.473Z,22.97
2023-01-19T12:52:40.652Z,22.97
2023-01-19T12:53:40.843Z,23.04
2023-01-19T12:54:41.000Z,23.04
2023-01-19T12:55:41.180Z,23.05
2023-01-19T12:56:41.367Z,23.12
2023-01-19T12:57:41.537Z,23.11
2023-01-19T12:58:41.711Z,23.12
2023-01-19T12:59:41.876Z,23.12
2023-01-19T13:00:42.066Z,23.14
2023-01-19T13:01:42.330Z,23.12
2023-01-19T13:02:42.447Z,23.12
2023-01-19T13:03:42.583Z,23.16
2023-01-19T13:04:42.753Z,23.17
2023-01-19T13:05:42.943Z,23.19
2023-01-19T13:06:43.136Z,23.19
2023-01-19T13:07:43.282Z,23.22
2023-01-19T13:08:43.456Z,23.20
2023-01-19T13:09:43.650Z,23.20
2023-01-19T13:10:43.818Z,23.24
2023-01-19T13:11:48.463Z,23.27
2023-01-19T13:12:45.156Z,23.30
2023-01-19T13:13:44.356Z,23.30